createdAt,value
2023-04-08T00:01:07.277Z,1.76
2023-04-08T00:03:34.761Z,1.70
2023-04-08T00:06:03.289Z,1.86
2023-04-08T00:08:30.017Z,1.69
2023-04-08T00:10:56.940Z,1.74
2023-04-08T00:13:23.479Z,1.67
2023-04-08T00:15:49.990Z,1.73
2023-04-08T00:18:17.402Z,1.75
2023-04-08T00:20:44.316Z,1.64
2023-04-08T00:23:11.049Z,1.64
2023-04-08T00:25:37.766Z,1.60
2023-04-08T00:28:04.560Z,1.57
2023-04-08T00:30:31.391Z,1.58
2023-04-08T00:32:58.578Z,1.63
2023-04-08T00:35:25.836Z,1.84
2023-04-08T00:37:52.481Z,1.81
2023-04-08T00:40:19.090Z,1.85
2023-04-08T00:42:45.639Z,1.86
2023-04-08T00:45:13.339Z,1.83
2023-04-08T00:47:40.140Z,1.88
2023-04-08T00:50:10.885Z,1.91
2023-04-08T00:52:37.492Z,1.82
2023-04-08T00:55:04.503Z,1.83
2023-04-08T00:57:31.060Z,1.76
2023-04-08T00:59:58.787Z,1.91
2023-04-08T01:02:39.774Z,1.99
2023-04-08T01:05:26.688Z,2.00
2023-04-08T01:07:53.206Z,2.02
2023-04-08T01:10:26.636Z,1.95
2023-04-08T01:12:58.238Z,1.91
2023-04-08T01:15:26.890Z,1.87
2023-04-08T01:17:56.343Z,1.94
2023-04-08T01:20:25.290Z,1.93
2023-04-08T01:23:01.291Z,2.17
2023-04-08T01:25:32.445Z,2.06
2023-04-08T01:28:06.034Z,2.12
2023-04-08T01:30:34.096Z,2.23
2023-04-08T01:33:02.414Z,2.12
2023-04-08T01:35:31.170Z,2.09
2023-04-08T01:37:59.226Z,2.20
2023-04-08T01:40:26.225Z,2.11
2023-04-08T01:42:56.053Z,2.17
2023-04-08T01:45:24.207Z,2.18
2023-04-08T01:47:52.441Z,1.93
2023-04-08T01:50:20.586Z,2.14
2023-04-08T01:52:50.432Z,2.12
2023-04-08T01:55:17.513Z,2.16
2023-04-08T01:57:52.847Z,2.16
2023-04-08T02:00:26.395Z,1.93
2023-04-08T02:02:54.563Z,1.90
2023-04-08T02:05:21.458Z,1.96
2023-04-08T02:07:48.893Z,1.87
2023-04-08T02:10:16.210Z,1.96
2023-04-08T02:12:44.278Z,2.02
2023-04-08T02:15:12.276Z,2.08
2023-04-08T02:17:47.217Z,2.41
2023-04-08T02:20:24.660Z,2.18
2023-04-08T02:23:19.617Z,2.07
2023-04-08T02:25:48.160Z,2.22
2023-04-08T02:28:17.753Z,2.17
2023-04-08T02:30:51.162Z,2.07
2023-04-08T02:33:20.938Z,2.28
2023-04-08T02:35:49.554Z,2.75
2023-04-08T02:38:16.196Z,2.94
2023-04-08T02:40:43.361Z,2.99
2023-04-08T02:43:09.922Z,2.86
2023-04-08T02:45:42.565Z,2.76
2023-04-08T02:48:10.248Z,2.85
2023-04-08T02:50:37.171Z,3.19
2023-04-08T02:53:04.084Z,3.38
2023-04-08T02:55:32.664Z,3.32
2023-04-08T02:57:59.083Z,3.52
2023-04-08T03:00:25.536Z,3.53
2023-04-08T03:02:51.998Z,3.34
2023-04-08T03:05:18.624Z,3.07
2023-04-08T03:07:45.329Z,3.46
2023-04-08T03:10:11.799Z,3.39
2023-04-08T03:12:38.193Z,3.50
2023-04-08T03:15:05.043Z,3.44
2023-04-08T03:17:33.879Z,3.19
2023-04-08T03:20:05.114Z,3.21
2023-04-08T03:22:31.893Z,3.22
2023-04-08T03:24:58.377Z,3.04
2023-04-08T03:27:24.787Z,3.26
2023-04-08T03:29:51.390Z,3.33
2023-04-08T03:32:18.011Z,3.32
2023-04-08T03:34:44.484Z,3.31
2023-04-08T03:37:10.928Z,3.17
2023-04-08T03:39:37.926Z,3.50
2023-04-08T03:42:04.451Z,3.41
2023-04-08T03:44:31.039Z,3.58
2023-04-08T03:46:57.490Z,3.48
2023-04-08T03:49:23.917Z,3.67
2023-04-08T03:51:50.852Z,3.51
2023-04-08T03:54:17.334Z,3.48
2023-04-08T03:56:43.757Z,3.58
2023-04-08T03:59:10.300Z,3.45
2023-04-08T04:01:36.688Z,3.63
2023-04-08T04:04:03.403Z,3.55
2023-04-08T04:06:30.076Z,3.64
2023-04-08T04:08:56.440Z,3.62
2023-04-08T04:11:23.107Z,3.42
2023-04-08T04:13:49.697Z,3.35
2023-04-08T04:16:16.449Z,3.28
2023-04-08T04:18:43.050Z,3.46
2023-04-08T04:21:09.763Z,3.35
2023-04-08T04:23:36.280Z,3.34
2023-04-08T04:26:02.675Z,3.46
2023-04-08T04:28:29.139Z,3.37
2023-04-08T04:30:56.791Z,3.28
2023-04-08T04:33:23.432Z,3.31
2023-04-08T04:35:50.058Z,3.34
2023-04-08T04:38:16.595Z,3.25
2023-04-08T04:40:44.215Z,3.54
2023-04-08T04:43:10.912Z,3.59
2023-04-08T04:45:37.368Z,3.53
2023-04-08T04:48:03.806Z,3.79
2023-04-08T04:50:30.491Z,3.58
2023-04-08T04:52:57.050Z,3.62
2023-04-08T04:55:23.528Z,3.40
2023-04-08T04:57:49.910Z,3.83
2023-04-08T05:00:17.053Z,3.68
2023-04-08T05:02:43.792Z,3.85
2023-04-08T05:05:10.725Z,3.37
2023-04-08T05:07:38.476Z,3.58
2023-04-08T05:10:06.071Z,3.76
2023-04-08T05:12:32.755Z,3.83
2023-04-08T05:15:02.292Z,3.95
2023-04-08T05:17:28.798Z,4.05
2023-04-08T05:19:55.202Z,4.29
2023-04-08T05:22:21.943Z,4.07
2023-04-08T05:24:48.906Z,3.87
2023-04-08T05:27:15.633Z,4.28
2023-04-08T05:29:42.440Z,4.44
2023-04-08T05:32:09.210Z,4.58
2023-04-08T05:34:35.735Z,4.22
2023-04-08T05:37:02.137Z,4.41
2023-04-08T05:39:28.598Z,4.49
2023-04-08T05:41:55.174Z,4.60
2023-04-08T05:44:21.748Z,4.53
2023-04-08T05:46:48.256Z,4.47
2023-04-08T05:49:15.665Z,4.62
2023-04-08T05:51:42.197Z,4.54
2023-04-08T05:54:08.906Z,4.74
2023-04-08T05:56:35.964Z,4.62
2023-04-08T05:59:02.485Z,4.82
2023-04-08T06:01:28.956Z,5.02
2023-04-08T06:03:58.551Z,4.75
2023-04-08T06:06:28.035Z,4.97
2023-04-08T06:08:54.514Z,4.94
2023-04-08T06:11:21.058Z,5.38
2023-04-08T06:13:48.103Z,5.14
2023-04-08T06:16:19.524Z,5.06
2023-04-08T06:18:47.302Z,5.04
2023-04-08T06:21:14.032Z,5.36
2023-04-08T06:23:40.367Z,5.44
2023-04-08T06:26:07.156Z,5.37
2023-04-08T06:28:33.707Z,5.37
2023-04-08T06:31:00.430Z,5.09
2023-04-08T06:33:26.945Z,5.11
2023-04-08T06:36:01.823Z,5.43
2023-04-08T06:38:28.320Z,5.21
2023-04-08T06:40:54.699Z,5.28
2023-04-08T06:43:21.142Z,4.87
2023-04-08T06:45:47.537Z,5.08
2023-04-08T06:48:14.019Z,5.62
2023-04-08T06:50:40.406Z,5.67
2023-04-08T06:53:06.860Z,5.02
2023-04-08T06:55:33.287Z,5.23
2023-04-08T06:57:59.775Z,5.59
2023-04-08T07:00:26.597Z,5.54
2023-04-08T07:02:53.191Z,5.26
2023-04-08T07:05:19.705Z,5.33
2023-04-08T07:07:46.220Z,5.52
2023-04-08T07:10:13.203Z,4.87
2023-04-08T07:12:39.626Z,5.18
2023-04-08T07:15:06.411Z,5.08
2023-04-08T07:17:32.915Z,5.23
2023-04-08T07:19:59.419Z,5.37
2023-04-08T07:22:26.153Z,4.98
2023-04-08T07:24:52.813Z,5.24
2023-04-08T07:27:19.281Z,5.01
2023-04-08T07:29:45.843Z,5.66
2023-04-08T07:32:12.286Z,5.30
2023-04-08T07:34:38.649Z,5.39
2023-04-08T07:37:05.323Z,4.94
2023-04-08T07:39:31.844Z,4.82
2023-04-08T07:41:58.340Z,4.63
2023-04-08T07:44:24.696Z,4.94
2023-04-08T07:46:51.868Z,4.73
2023-04-08T07:49:18.468Z,5.00
2023-04-08T07:51:44.926Z,5.04
2023-04-08T07:54:12.574Z,4.79
2023-04-08T07:56:40.399Z,4.81
2023-04-08T07:59:07.217Z,4.57
2023-04-08T08:01:34.966Z,4.48
2023-04-08T08:04:01.996Z,4.86
2023-04-08T08:06:28.775Z,4.38
2023-04-08T08:08:55.589Z,4.88
2023-04-08T08:11:22.633Z,4.34
2023-04-08T08:13:49.391Z,4.44
2023-04-08T08:16:16.152Z,4.35
2023-04-08T08:18:42.679Z,4.50
2023-04-08T08:21:09.541Z,4.80
2023-04-08T08:23:37.413Z,4.56
2023-04-08T08:26:12.093Z,4.59
2023-04-08T08:28:39.831Z,4.19
2023-04-08T08:31:06.533Z,4.33
2023-04-08T08:33:33.766Z,4.40
2023-04-08T08:36:00.504Z,4.53
2023-04-08T08:38:27.524Z,3.97
2023-04-08T08:40:56.270Z,4.17
2023-04-08T08:43:24.112Z,4.11
2023-04-08T08:45:51.283Z,4.33
2023-04-08T08:48:17.848Z,4.57
2023-04-08T08:50:44.487Z,4.39
2023-04-08T08:53:11.084Z,4.56
2023-04-08T08:56:05.739Z,4.63
2023-04-08T08:58:27.883Z,4.35
2023-04-08T09:00:54.649Z,4.50
2023-04-08T09:03:23.932Z,4.66
2023-04-08T09:05:56.595Z,4.68
2023-04-08T09:08:43.314Z,4.80
2023-04-08T09:11:13.977Z,4.86
2023-04-08T09:13:40.766Z,4.57
2023-04-08T09:16:10.248Z,5.07
2023-04-08T09:18:38.096Z,5.29
2023-04-08T09:21:06.566Z,5.33
2023-04-08T09:23:52.686Z,5.21
2023-04-08T09:26:24.634Z,5.20
2023-04-08T09:29:01.102Z,5.19
2023-04-08T09:31:38.181Z,5.02
2023-04-08T09:34:13.168Z,4.97
2023-04-08T09:36:39.644Z,5.14
2023-04-08T09:39:06.440Z,5.03
2023-04-08T09:41:38.748Z,5.01
2023-04-08T09:44:10.295Z,5.48
2023-04-08T09:46:41.066Z,4.98
2023-04-08T09:49:12.350Z,4.80
2023-04-08T09:51:45.210Z,4.79
2023-04-08T09:54:18.349Z,4.69
2023-04-08T09:56:53.612Z,4.69
2023-04-08T09:59:23.950Z,4.58
2023-04-08T10:01:53.960Z,4.80
2023-04-08T10:04:24.168Z,4.85
2023-04-08T10:06:57.301Z,4.86
2023-04-08T10:09:24.157Z,5.05
2023-04-08T10:11:51.308Z,4.62
2023-04-08T10:14:17.840Z,5.10
2023-04-08T10:16:44.400Z,5.36
2023-04-08T10:19:37.392Z,5.23
2023-04-08T10:22:04.230Z,5.05
2023-04-08T10:24:31.468Z,5.18
2023-04-08T10:26:58.115Z,5.13
2023-04-08T10:29:30.924Z,5.24
2023-04-08T10:31:57.769Z,5.14
2023-04-08T10:34:27.358Z,4.90
2023-04-08T10:36:55.856Z,4.99
2023-04-08T10:39:22.816Z,5.19
2023-04-08T10:41:50.594Z,4.95
2023-04-08T10:44:22.341Z,4.80
2023-04-08T10:46:51.295Z,4.65
2023-04-08T10:49:18.612Z,4.92
2023-04-08T10:51:46.570Z,4.88
2023-04-08T10:54:16.784Z,4.68
2023-04-08T10:56:51.164Z,4.47
2023-04-08T10:59:28.262Z,4.36
2023-04-08T11:01:55.658Z,4.72
2023-04-08T11:04:23.628Z,4.69
2023-04-08T11:06:50.351Z,4.95
2023-04-08T11:09:17.129Z,5.12
2023-04-08T11:11:44.881Z,4.72
2023-04-08T11:14:11.454Z,4.67
2023-04-08T11:16:39.416Z,4.24
2023-04-08T11:19:06.879Z,4.33
2023-04-08T11:21:38.508Z,4.46
2023-04-08T11:24:14.876Z,4.33
2023-04-08T11:26:42.105Z,4.64
2023-04-08T11:29:14.231Z,4.69
2023-04-08T11:31:42.516Z,5.02
2023-04-08T11:34:09.395Z,4.88
2023-04-08T11:36:36.869Z,5.07
2023-04-08T11:39:10.498Z,5.40
2023-04-08T11:41:39.448Z,5.12
2023-04-08T11:44:07.088Z,5.28
2023-04-08T11:46:35.188Z,5.44
2023-04-08T11:49:06.454Z,5.72
2023-04-08T11:51:34.772Z,5.35
2023-04-08T11:54:30.756Z,5.81
2023-04-08T11:56:58.288Z,6.23
2023-04-08T11:59:27.299Z,5.51
2023-04-08T12:01:55.408Z,6.64
2023-04-08T12:04:22.192Z,5.92
2023-04-08T12:06:49.593Z,6.17
2023-04-08T12:09:16.427Z,5.93
2023-04-08T12:11:42.874Z,6.41
2023-04-08T12:14:09.654Z,6.27
2023-04-08T12:16:36.383Z,6.30
2023-04-08T12:19:02.969Z,5.88
2023-04-08T12:21:29.371Z,5.86
2023-04-08T12:23:55.979Z,6.02
2023-04-08T12:26:22.651Z,6.36
2023-04-08T12:28:49.119Z,6.28
2023-04-08T12:31:15.574Z,6.32
2023-04-08T12:33:42.124Z,6.17
2023-04-08T12:36:08.598Z,6.28
2023-04-08T12:38:35.245Z,6.07
2023-04-08T12:41:01.642Z,6.56
2023-04-08T12:43:28.112Z,6.01
2023-04-08T12:45:54.492Z,6.21
2023-04-08T12:48:20.961Z,6.34
2023-04-08T12:50:47.375Z,6.39
2023-04-08T12:53:13.841Z,6.04
2023-04-08T12:55:40.348Z,6.30
2023-04-08T12:58:06.909Z,5.96
2023-04-08T13:00:33.523Z,6.64
2023-04-08T13:03:00.352Z,6.65
2023-04-08T13:05:41.956Z,6.20
2023-04-08T13:08:09.854Z,6.43
2023-04-08T13:10:36.414Z,6.64
2023-04-08T13:13:02.807Z,6.95
2023-04-08T13:15:29.284Z,6.62
2023-04-08T13:17:55.980Z,7.16
2023-04-08T13:20:25.664Z,6.64
2023-04-08T13:22:55.223Z,6.60
2023-04-08T13:25:21.718Z,6.96
2023-04-08T13:27:48.134Z,7.09
2023-04-08T13:30:14.644Z,6.95
2023-04-08T13:32:41.238Z,6.66
2023-04-08T13:35:08.293Z,7.10
2023-04-08T13:37:34.818Z,7.15
2023-04-08T13:40:02.337Z,7.37
2023-04-08T13:42:31.326Z,6.78
2023-04-08T13:44:57.906Z,7.17
2023-04-08T13:47:24.370Z,7.09
2023-04-08T13:49:51.684Z,6.59
2023-04-08T13:52:18.180Z,6.66
2023-04-08T13:54:44.539Z,6.94
2023-04-08T13:57:10.993Z,7.30
2023-04-08T13:59:37.452Z,6.89
2023-04-08T14:02:04.238Z,6.84
2023-04-08T14:04:30.925Z,7.12
2023-04-08T14:06:58.143Z,7.58
2023-04-08T14:09:24.668Z,7.58
2023-04-08T14:11:51.033Z,7.55
2023-04-08T14:14:17.511Z,7.80
2023-04-08T14:16:43.948Z,7.81
2023-04-08T14:19:10.492Z,7.54
2023-04-08T14:21:38.034Z,7.22
2023-04-08T14:24:05.552Z,7.00
2023-04-08T14:26:35.766Z,7.29
2023-04-08T14:29:06.591Z,6.79
2023-04-08T14:31:33.734Z,6.72
2023-04-08T14:34:01.060Z,7.02
2023-04-08T14:36:31.651Z,6.93
2023-04-08T14:38:58.265Z,7.09
2023-04-08T14:41:27.137Z,6.73
2023-04-08T14:43:53.661Z,6.62
2023-04-08T14:46:20.968Z,6.53
2023-04-08T14:48:47.622Z,6.44
2023-04-08T14:51:13.982Z,6.55
2023-04-08T14:53:40.577Z,6.48
2023-04-08T14:56:08.649Z,6.68
2023-04-08T14:58:35.236Z,6.93
2023-04-08T15:01:01.644Z,6.86
2023-04-08T15:03:28.284Z,6.93
2023-04-08T15:05:58.593Z,6.99
2023-04-08T15:08:25.115Z,7.16
2023-04-08T15:10:51.499Z,7.14
2023-04-08T15:13:17.956Z,7.01
2023-04-08T15:15:44.478Z,6.93
2023-04-08T15:18:11.020Z,6.85
2023-04-08T15:20:37.506Z,6.70
2023-04-08T15:23:03.965Z,6.14
2023-04-08T15:25:30.360Z,6.41
2023-04-08T15:27:57.027Z,6.62
2023-04-08T15:30:25.041Z,6.19
2023-04-08T15:32:52.116Z,6.32
2023-04-08T15:35:18.736Z,6.39
2023-04-08T15:37:45.316Z,6.53
2023-04-08T15:40:12.008Z,6.88
2023-04-08T15:42:38.476Z,6.57
2023-04-08T15:45:04.929Z,6.50
2023-04-08T15:47:31.575Z,7.21
2023-04-08T15:49:58.099Z,6.63
2023-04-08T15:52:24.720Z,6.82
2023-04-08T15:54:51.174Z,6.32
2023-04-08T15:57:17.584Z,6.67
2023-04-08T15:59:44.149Z,6.74
2023-04-08T16:02:10.948Z,6.87
2023-04-08T16:04:37.514Z,6.96
2023-04-08T16:07:04.199Z,6.66
2023-04-08T16:09:31.188Z,6.65
2023-04-08T16:11:57.673Z,6.65
2023-04-08T16:14:24.086Z,6.75
2023-04-08T16:16:51.241Z,6.73
2023-04-08T16:19:18.292Z,6.87
2023-04-08T16:21:44.811Z,6.74
2023-04-08T16:24:11.542Z,6.77
2023-04-08T16:26:38.067Z,6.53
2023-04-08T16:29:04.581Z,6.53
2023-04-08T16:33:57.745Z,7.00
2023-04-08T16:36:24.361Z,6.81
2023-04-08T16:38:51.207Z,6.51
2023-04-08T16:41:17.696Z,6.57
2023-04-08T16:43:44.096Z,6.62
2023-04-08T16:46:16.768Z,6.96
2023-04-08T16:48:44.245Z,6.73
2023-04-08T16:51:11.585Z,6.44
2023-04-08T16:53:38.262Z,6.49
2023-04-08T16:56:05.647Z,6.25
2023-04-08T16:58:32.575Z,6.03
2023-04-08T17:00:59.082Z,6.18
2023-04-08T17:03:27.269Z,6.24
2023-04-08T17:05:53.923Z,6.06
2023-04-08T17:08:21.252Z,6.32
2023-04-08T17:10:49.630Z,6.18
2023-04-08T17:13:16.807Z,6.12
2023-04-08T17:15:43.389Z,6.22
2023-04-08T17:18:09.871Z,6.26
2023-04-08T17:20:37.559Z,6.36
2023-04-08T17:23:03.949Z,6.32
2023-04-08T17:25:30.714Z,6.18
2023-04-08T17:27:57.147Z,6.05
2023-04-08T17:30:23.707Z,6.08
2023-04-08T17:32:50.180Z,6.20
2023-04-08T17:35:17.232Z,5.96
2023-04-08T17:37:43.687Z,6.05
2023-04-08T17:40:10.153Z,6.18
2023-04-08T17:42:36.567Z,5.68
2023-04-08T17:45:03.088Z,6.07
2023-04-08T17:47:29.554Z,6.13
2023-04-08T17:49:56.247Z,5.97
2023-04-08T17:52:22.773Z,6.03
2023-04-08T17:54:49.142Z,6.21
2023-04-08T17:57:15.578Z,6.11
2023-04-08T17:59:41.968Z,6.11
2023-04-08T18:02:08.665Z,6.06
2023-04-08T18:04:35.205Z,6.09
2023-04-08T18:07:03.912Z,6.06
2023-04-08T18:09:30.740Z,5.82
2023-04-08T18:11:57.231Z,6.01
2023-04-08T18:14:23.642Z,6.01
2023-04-08T18:16:50.176Z,5.75
2023-04-08T18:19:16.600Z,6.06
2023-04-08T18:21:43.511Z,6.24
2023-04-08T18:24:09.933Z,5.58
2023-04-08T18:26:36.974Z,5.97
2023-04-08T18:29:03.498Z,5.93
2023-04-08T18:31:29.880Z,6.04
2023-04-08T18:33:56.769Z,5.59
2023-04-08T18:36:23.373Z,5.78
2023-04-08T18:38:49.775Z,5.93
2023-04-08T18:41:17.930Z,5.76
2023-04-08T18:43:44.358Z,5.77
2023-04-08T18:46:10.815Z,5.79
2023-04-08T18:48:37.342Z,5.72
2023-04-08T18:51:03.857Z,5.88
2023-04-08T18:53:30.633Z,5.79
2023-04-08T18:55:57.133Z,5.85
2023-04-08T18:58:23.665Z,5.50
2023-04-08T19:00:50.142Z,5.64
2023-04-08T19:03:17.030Z,5.75
2023-04-08T19:05:43.594Z,5.67
2023-04-08T19:08:09.968Z,5.78
2023-04-08T19:10:36.456Z,5.65
2023-04-08T19:13:03.029Z,5.99
2023-04-08T19:15:30.156Z,5.66
2023-04-08T19:17:56.772Z,5.83
2023-04-08T19:20:23.632Z,5.65
2023-04-08T19:22:51.123Z,5.50
2023-04-08T19:25:17.806Z,5.58
2023-04-08T19:27:45.950Z,5.64
2023-04-08T19:30:13.469Z,5.64
2023-04-08T19:32:40.540Z,5.51
2023-04-08T19:35:07.626Z,5.20
2023-04-08T19:37:34.633Z,5.58
2023-04-08T19:40:01.190Z,5.69
2023-04-08T19:42:27.686Z,5.52
2023-04-08T19:44:55.086Z,5.62
2023-04-08T19:47:22.157Z,5.62
2023-04-08T19:49:48.711Z,5.52
2023-04-08T19:52:15.370Z,5.57
2023-04-08T19:54:43.302Z,5.49
2023-04-08T19:57:11.002Z,5.54
2023-04-08T19:59:38.110Z,5.69
2023-04-08T20:02:04.816Z,5.32
2023-04-08T20:04:31.997Z,5.53
2023-04-08T20:07:01.772Z,5.41
2023-04-08T20:09:28.468Z,5.45
2023-04-08T20:11:54.975Z,5.46
2023-04-08T20:14:21.333Z,5.42
2023-04-08T20:16:48.530Z,5.20
2023-04-08T20:19:15.024Z,5.29
2023-04-08T20:21:41.790Z,5.47
2023-04-08T20:24:08.244Z,5.41
2023-04-08T20:26:34.644Z,5.44
2023-04-08T20:29:01.622Z,5.23
2023-04-08T20:31:28.266Z,5.26
2023-04-08T20:33:55.461Z,5.36
2023-04-08T20:36:22.817Z,5.30
2023-04-08T20:38:49.440Z,5.16
2023-04-08T20:41:20.172Z,5.31
2023-04-08T20:43:46.819Z,5.29
2023-04-08T20:46:13.272Z,5.02
2023-04-08T20:48:39.669Z,5.22
2023-04-08T20:51:06.537Z,5.10
2023-04-08T20:53:34.447Z,5.13
2023-04-08T20:56:02.964Z,5.00
2023-04-08T20:58:30.725Z,5.10
2023-04-08T21:00:58.666Z,4.98
2023-04-08T21:03:26.795Z,4.94
2023-04-08T21:05:55.233Z,4.97
2023-04-08T21:08:22.035Z,4.87
2023-04-08T21:10:48.507Z,4.77
2023-04-08T21:13:14.913Z,4.89
2023-04-08T21:15:41.367Z,4.59
2023-04-08T21:18:09.771Z,4.89
2023-04-08T21:20:36.260Z,4.89
2023-04-08T21:23:02.653Z,4.81
2023-04-08T21:25:31.300Z,4.78
2023-04-08T21:27:57.745Z,4.89
2023-04-08T21:30:24.116Z,4.86
2023-04-08T21:32:50.665Z,4.72
2023-04-08T21:35:17.469Z,4.56
2023-04-08T21:37:43.933Z,4.66
2023-04-08T21:40:10.442Z,4.68
2023-04-08T21:42:36.889Z,4.82
2023-04-08T21:45:03.399Z,4.73
2023-04-08T21:47:29.924Z,4.47
2023-04-08T21:49:56.477Z,4.57
2023-04-08T21:52:23.199Z,4.60
2023-04-08T21:54:53.227Z,4.66
2023-04-08T21:57:19.818Z,4.66
2023-04-08T21:59:46.321Z,4.68
2023-04-08T22:18:11.834Z,4.24
2023-04-08T22:20:38.580Z,4.35
2023-04-08T22:23:05.333Z,4.46
2023-04-08T22:25:31.797Z,4.51
2023-04-08T22:27:58.213Z,4.52
2023-04-08T22:30:24.759Z,4.37
2023-04-08T22:32:51.422Z,4.50
2023-04-08T22:35:18.070Z,4.53
2023-04-08T22:37:44.618Z,4.56
2023-04-08T22:40:11.336Z,4.59
2023-04-08T22:42:37.915Z,4.59
2023-04-08T22:45:05.820Z,4.57
2023-04-08T22:47:32.546Z,4.63
2023-04-08T22:49:59.127Z,4.64
2023-04-08T22:52:25.518Z,4.61
2023-04-08T22:54:52.000Z,4.62
2023-04-08T22:57:18.464Z,4.64
2023-04-08T22:59:44.917Z,4.56
2023-04-08T23:02:11.429Z,4.59
2023-04-08T23:04:38.032Z,4.57
2023-04-08T23:07:04.487Z,4.61
2023-04-08T23:09:31.202Z,4.62
2023-04-08T23:11:58.249Z,4.57
2023-04-08T23:14:24.931Z,4.57
2023-04-08T23:16:51.434Z,4.64
2023-04-08T23:19:17.846Z,4.61
2023-04-08T23:21:44.416Z,4.63
2023-04-08T23:24:11.439Z,4.52
2023-04-08T23:26:38.016Z,4.42
2023-04-08T23:29:04.511Z,4.50
2023-04-08T23:31:31.222Z,4.43
2023-04-08T23:33:57.775Z,4.43
2023-04-08T23:36:24.206Z,4.45
2023-04-08T23:38:51.219Z,4.42
2023-04-08T23:41:17.959Z,4.26
2023-04-08T23:43:45.580Z,4.41
2023-04-08T23:46:12.106Z,4.32
2023-04-08T23:48:38.707Z,4.22
2023-04-08T23:51:05.631Z,4.30
2023-04-08T23:53:32.311Z,4.29
2023-04-08T23:56:06.567Z,4.33
2023-04-08T23:58:33.320Z,4.33
